createdAt,value
2022-08-19T00:00:46.129Z,12.50
2022-08-19T00:03:14.712Z,11.30
2022-08-19T00:05:43.911Z,11.50
2022-08-19T00:08:12.802Z,11.40
2022-08-19T00:10:41.488Z,12.50
2022-08-19T00:13:10.792Z,10.50
2022-08-19T00:15:39.374Z,12.20
2022-08-19T00:18:07.959Z,11.20
2022-08-19T00:20:36.543Z,11.00
2022-08-19T00:23:05.333Z,11.40
2022-08-19T00:25:34.939Z,14.20
2022-08-19T00:28:05.559Z,10.60
2022-08-19T00:30:34.259Z,12.30
2022-08-19T00:33:02.844Z,13.00
2022-08-19T00:35:31.431Z,12.10
2022-08-19T00:38:00.933Z,12.90
2022-08-19T00:40:29.623Z,11.20
2022-08-19T00:42:58.206Z,12.60
2022-08-19T00:45:31.806Z,13.20
2022-08-19T00:48:04.682Z,11.80
2022-08-19T00:50:34.956Z,13.10
2022-08-19T00:53:05.516Z,13.80
2022-08-19T00:55:35.054Z,12.00
2022-08-19T00:58:08.713Z,12.60
2022-08-19T01:00:38.860Z,15.20
2022-08-19T01:03:14.763Z,13.00
2022-08-19T01:05:46.012Z,12.40
2022-08-19T01:08:16.953Z,10.80
2022-08-19T01:10:51.296Z,14.60
2022-08-19T01:13:24.875Z,12.50
2022-08-19T01:16:07.612Z,14.00
2022-08-19T01:18:42.133Z,12.90
2022-08-19T01:21:43.808Z,11.10
2022-08-19T01:24:12.428Z,14.20
2022-08-19T01:26:44.982Z,14.60
2022-08-19T01:29:15.387Z,15.30
2022-08-19T01:31:44.122Z,14.40
2022-08-19T01:34:12.706Z,14.00
2022-08-19T01:36:46.977Z,13.10
2022-08-19T01:39:23.391Z,13.50
2022-08-19T01:41:55.545Z,15.80
2022-08-19T01:44:25.484Z,12.80
2022-08-19T01:46:54.366Z,15.00
2022-08-19T01:49:26.320Z,14.50
2022-08-19T01:51:55.539Z,13.70
2022-08-19T01:54:27.571Z,13.30
2022-08-19T01:57:08.776Z,15.80
2022-08-19T01:59:40.639Z,16.10
2022-08-19T02:02:10.039Z,13.90
2022-08-19T02:04:39.853Z,13.50
2022-08-19T02:07:09.494Z,14.70
2022-08-19T02:09:38.456Z,13.10
2022-08-19T02:12:10.084Z,13.40
2022-08-19T02:14:38.696Z,13.90
2022-08-19T02:17:07.894Z,16.00
2022-08-19T02:19:36.480Z,13.50
2022-08-19T02:22:08.954Z,16.00
2022-08-19T02:24:37.539Z,15.80
2022-08-19T02:27:07.123Z,15.70
2022-08-19T02:29:35.731Z,17.60
2022-08-19T02:32:05.707Z,14.30
2022-08-19T02:34:35.109Z,14.50
2022-08-19T02:37:04.029Z,17.60
2022-08-19T02:39:33.060Z,15.10
2022-08-19T02:42:03.466Z,14.80
2022-08-19T02:44:32.184Z,17.10
2022-08-19T02:47:00.840Z,17.00
2022-08-19T02:49:29.629Z,15.80
2022-08-19T02:52:04.873Z,19.20
2022-08-19T02:54:33.761Z,15.70
2022-08-19T02:57:02.346Z,15.80
2022-08-19T02:59:33.415Z,18.20
2022-08-19T03:02:01.971Z,17.10
2022-08-19T03:04:31.038Z,15.10
2022-08-19T03:07:02.681Z,18.60
2022-08-19T03:09:39.809Z,16.00
2022-08-19T03:12:08.613Z,17.80
2022-08-19T03:14:38.201Z,14.60
2022-08-19T03:17:09.242Z,15.60
2022-08-19T03:19:37.833Z,17.40
2022-08-19T03:22:06.724Z,17.30
2022-08-19T03:24:35.308Z,15.70
2022-08-19T03:27:06.247Z,18.40
2022-08-19T03:29:43.808Z,18.40
2022-08-19T03:32:24.449Z,19.00
2022-08-19T03:35:02.012Z,16.30
2022-08-19T03:37:30.589Z,17.50
2022-08-19T03:39:59.212Z,17.20
2022-08-19T03:42:38.621Z,15.10
2022-08-19T03:45:17.642Z,18.50
2022-08-19T03:47:46.738Z,19.10
2022-08-19T03:50:16.142Z,17.80
2022-08-19T03:52:49.889Z,17.30
2022-08-19T03:55:20.205Z,16.70
2022-08-19T03:57:49.679Z,16.60
2022-08-19T04:00:18.746Z,14.70
2022-08-19T04:02:58.247Z,15.80
2022-08-19T04:05:30.594Z,18.70
2022-08-19T04:08:00.515Z,16.70
2022-08-19T04:10:30.111Z,16.80
2022-08-19T04:12:58.798Z,17.50
2022-08-19T04:15:30.167Z,16.70
2022-08-19T04:17:59.039Z,17.50
2022-08-19T04:20:27.828Z,18.00
2022-08-19T04:22:58.389Z,17.60
2022-08-19T04:25:27.363Z,17.00
2022-08-19T04:27:55.941Z,16.90
2022-08-19T04:30:24.934Z,18.90
2022-08-19T04:32:54.126Z,16.00
2022-08-19T04:35:25.039Z,16.50
2022-08-19T04:37:53.859Z,18.20
2022-08-19T04:40:41.182Z,17.40
2022-08-19T04:43:09.870Z,17.70
2022-08-19T04:45:43.477Z,18.90
2022-08-19T04:48:26.267Z,19.20
2022-08-19T04:50:59.800Z,19.20
2022-08-19T04:53:37.632Z,16.60
2022-08-19T04:56:16.313Z,17.00
2022-08-19T04:58:46.151Z,16.50
2022-08-19T05:01:38.570Z,16.40
2022-08-19T05:04:08.997Z,16.50
2022-08-19T05:06:37.888Z,16.50
2022-08-19T05:09:07.191Z,16.70
2022-08-19T05:11:41.333Z,16.50
2022-08-19T05:14:14.145Z,16.90
2022-08-19T05:16:42.875Z,16.00
2022-08-19T05:19:30.198Z,16.50
2022-08-19T05:22:21.515Z,20.60
2022-08-19T05:25:11.201Z,18.80
2022-08-19T05:27:39.677Z,19.00
2022-08-19T05:30:10.241Z,17.40
2022-08-19T05:32:40.195Z,16.60
2022-08-19T05:35:10.706Z,19.20
2022-08-19T05:37:41.734Z,18.10
2022-08-19T05:40:11.667Z,19.00
2022-08-19T05:42:40.400Z,21.00
2022-08-19T05:45:10.098Z,18.30
2022-08-19T05:47:40.615Z,18.60
2022-08-19T05:50:11.887Z,17.90
2022-08-19T05:52:45.831Z,16.30
2022-08-19T05:55:22.149Z,18.30
2022-08-19T05:57:51.051Z,18.30
2022-08-19T06:00:24.466Z,17.80
2022-08-19T06:02:53.436Z,16.70
2022-08-19T06:05:22.191Z,19.40
2022-08-19T06:07:50.776Z,20.30
2022-08-19T06:10:19.405Z,19.20
2022-08-19T06:12:48.091Z,17.70
2022-08-19T06:15:17.193Z,15.70
2022-08-19T06:17:45.874Z,17.80
2022-08-19T06:20:16.598Z,17.80
2022-08-19T06:22:50.762Z,20.40
2022-08-19T06:25:19.922Z,16.60
2022-08-19T06:28:11.517Z,17.50
2022-08-19T06:30:38.390Z,18.50
2022-08-19T06:33:06.975Z,17.90
2022-08-19T06:35:41.723Z,19.20
2022-08-19T06:38:10.859Z,19.80
2022-08-19T06:40:39.890Z,20.40
2022-08-19T06:43:09.546Z,18.40
2022-08-19T06:45:39.905Z,18.80
2022-08-19T06:48:08.723Z,18.40
2022-08-19T06:50:39.473Z,20.20
2022-08-19T06:53:09.476Z,18.30
2022-08-19T06:55:38.877Z,20.80
2022-08-19T06:58:07.566Z,18.40
2022-08-19T07:00:36.150Z,18.60
2022-08-19T07:03:08.818Z,19.20
2022-08-19T07:05:45.698Z,20.90
2022-08-19T07:08:15.726Z,16.10
2022-08-19T07:10:46.320Z,17.50
2022-08-19T07:13:15.365Z,18.70
2022-08-19T07:15:44.142Z,16.50
2022-08-19T07:18:12.726Z,15.40
2022-08-19T07:20:42.934Z,15.90
2022-08-19T07:23:15.928Z,16.00
2022-08-19T07:25:46.039Z,17.20
2022-08-19T07:28:23.944Z,18.20
2022-08-19T07:30:54.185Z,15.10
2022-08-19T07:33:24.202Z,17.70
2022-08-19T07:35:56.677Z,15.80
2022-08-19T07:38:26.081Z,15.70
2022-08-19T07:40:55.894Z,18.20
2022-08-19T07:43:34.763Z,17.30
2022-08-19T07:46:04.404Z,16.30
2022-08-19T07:48:33.710Z,16.70
2022-08-19T07:51:12.145Z,16.50
2022-08-19T07:53:44.506Z,16.20
2022-08-19T07:56:16.892Z,16.80
2022-08-19T07:58:47.908Z,18.00
2022-08-19T08:01:22.081Z,18.60
2022-08-19T08:04:12.547Z,16.50
2022-08-19T08:06:59.973Z,18.00
2022-08-19T08:09:39.183Z,16.70
2022-08-19T08:12:33.603Z,18.60
2022-08-19T08:15:12.700Z,17.30
2022-08-19T08:17:49.109Z,21.10
2022-08-19T08:20:20.344Z,17.70
2022-08-19T08:23:08.179Z,17.90
2022-08-19T08:25:37.786Z,17.60
2022-08-19T08:28:06.584Z,22.20
2022-08-19T08:30:37.207Z,16.40
2022-08-19T08:33:06.176Z,17.40
2022-08-19T08:35:34.991Z,16.80
2022-08-19T08:38:06.119Z,20.50
2022-08-19T08:41:07.392Z,18.90
2022-08-19T08:43:45.801Z,17.00
2022-08-19T08:46:43.262Z,18.00
2022-08-19T08:49:21.779Z,19.20
2022-08-19T08:52:03.471Z,18.80
2022-08-19T08:54:49.074Z,17.00
2022-08-19T08:57:48.769Z,16.00
2022-08-19T09:00:46.844Z,17.30
2022-08-19T09:03:24.807Z,17.90
2022-08-19T09:06:05.827Z,17.40
2022-08-19T09:08:44.076Z,18.30
2022-08-19T09:11:42.684Z,19.20
2022-08-19T09:14:52.013Z,17.60
2022-08-19T09:17:32.071Z,18.00
2022-08-19T09:20:22.879Z,17.70
2022-08-19T09:22:51.899Z,19.80
2022-08-19T09:25:26.945Z,16.20
2022-08-19T09:28:02.666Z,17.70
2022-08-19T09:30:36.324Z,17.30
2022-08-19T09:33:05.924Z,18.10
2022-08-19T09:35:50.067Z,20.90
2022-08-19T09:38:23.261Z,16.90
2022-08-19T09:40:51.847Z,17.20
2022-08-19T09:43:33.230Z,18.50
2022-08-19T09:46:08.860Z,18.60
2022-08-19T09:48:39.171Z,19.70
2022-08-19T09:51:11.795Z,17.10
2022-08-19T09:53:41.394Z,19.40
2022-08-19T09:56:11.223Z,20.20
2022-08-19T09:58:41.239Z,18.70
2022-08-19T10:01:11.020Z,20.40
2022-08-19T10:03:39.621Z,20.60
2022-08-19T10:06:14.656Z,21.20
2022-08-19T10:08:50.239Z,19.90
2022-08-19T10:11:27.546Z,19.80
2022-08-19T10:14:08.984Z,21.20
2022-08-19T10:16:39.701Z,21.60
2022-08-19T10:19:10.447Z,22.30
2022-08-19T10:21:40.441Z,21.90
2022-08-19T10:24:09.465Z,21.20
2022-08-19T10:26:43.167Z,23.00
2022-08-19T10:29:12.965Z,20.70
2022-08-19T10:32:01.314Z,22.40
2022-08-19T10:34:32.197Z,21.90
2022-08-19T10:37:05.962Z,21.00
2022-08-19T10:39:43.356Z,21.60
2022-08-19T10:42:14.508Z,23.00
2022-08-19T10:44:43.764Z,22.70
2022-08-19T10:47:17.369Z,23.40
2022-08-19T10:50:15.243Z,23.50
2022-08-19T10:52:50.396Z,24.10
2022-08-19T10:55:43.888Z,25.90
2022-08-19T10:58:23.528Z,23.50
2022-08-19T11:00:59.797Z,23.40
2022-08-19T11:03:32.068Z,21.80
2022-08-19T11:06:07.697Z,26.80
2022-08-19T11:08:38.860Z,24.10
2022-08-19T11:11:09.489Z,27.20
2022-08-19T11:13:42.168Z,26.20
2022-08-19T11:16:16.284Z,24.50
2022-08-19T11:18:50.131Z,23.10
2022-08-19T11:21:27.235Z,23.30
2022-08-19T11:23:59.813Z,24.90
2022-08-19T11:26:31.292Z,25.30
2022-08-19T11:29:01.585Z,25.20
2022-08-19T11:31:36.669Z,23.50
2022-08-19T11:34:11.738Z,22.20
2022-08-19T11:36:43.975Z,22.30
2022-08-19T11:39:16.232Z,21.90
2022-08-19T11:41:45.344Z,21.80
2022-08-19T11:44:15.533Z,20.50
2022-08-19T11:46:47.608Z,22.90
2022-08-19T11:49:20.131Z,20.90
2022-08-19T11:51:51.356Z,20.20
2022-08-19T11:54:20.039Z,21.30
2022-08-19T11:56:50.365Z,21.40
2022-08-19T11:59:18.950Z,22.40
2022-08-19T12:01:47.746Z,21.80
2022-08-19T12:04:16.379Z,18.10
2022-08-19T12:06:47.365Z,20.80
2022-08-19T12:09:16.873Z,21.60
2022-08-19T12:11:45.876Z,21.80
2022-08-19T12:14:15.288Z,22.60
2022-08-19T12:16:50.374Z,21.30
2022-08-19T12:19:22.439Z,21.60
2022-08-19T12:21:54.216Z,19.50
2022-08-19T12:24:24.556Z,22.10
2022-08-19T12:26:55.073Z,22.20
2022-08-19T12:29:25.412Z,25.50
2022-08-19T12:31:54.002Z,20.30
2022-08-19T12:34:22.684Z,21.70
2022-08-19T12:36:51.271Z,26.20
2022-08-19T12:39:19.857Z,27.50
2022-08-19T12:41:54.501Z,30.50
2022-08-19T12:44:31.858Z,30.80
2022-08-19T12:47:04.107Z,27.90
2022-08-19T12:49:53.506Z,29.50
2022-08-19T12:52:28.342Z,27.90
2022-08-19T12:54:58.453Z,29.90
2022-08-19T12:57:32.792Z,27.50
2022-08-19T13:00:23.527Z,32.10
2022-08-19T13:02:53.962Z,30.90
2022-08-19T13:05:27.041Z,33.60
2022-08-19T13:07:58.677Z,30.70
2022-08-19T13:10:32.757Z,29.30
2022-08-19T13:13:02.888Z,27.70
2022-08-19T13:15:37.054Z,28.50
2022-08-19T13:18:05.711Z,32.50
2022-08-19T13:20:34.484Z,30.00
2022-08-19T13:23:05.936Z,27.80
2022-08-19T13:25:34.930Z,27.00
2022-08-19T13:28:05.447Z,28.30
2022-08-19T13:30:53.193Z,29.40
2022-08-19T13:33:22.087Z,29.30
2022-08-19T13:36:01.904Z,29.80
2022-08-19T13:38:31.747Z,28.10
2022-08-19T13:41:11.120Z,28.80
2022-08-19T13:43:41.005Z,26.60
2022-08-19T13:46:15.139Z,27.70
2022-08-19T13:48:44.007Z,28.10
2022-08-19T13:51:12.693Z,26.30
2022-08-19T13:53:47.754Z,30.50
2022-08-19T13:56:24.175Z,27.60
2022-08-19T13:58:55.137Z,26.20
2022-08-19T14:01:28.125Z,26.50
2022-08-19T14:03:56.708Z,25.50
2022-08-19T14:06:26.726Z,26.20
2022-08-19T14:08:55.416Z,25.50
2022-08-19T14:11:24.408Z,25.00
2022-08-19T14:13:53.197Z,24.00
2022-08-19T14:16:23.012Z,24.90
2022-08-19T14:18:52.823Z,24.60
2022-08-19T14:21:25.717Z,24.70
2022-08-19T14:23:54.865Z,25.00
2022-08-19T14:26:24.917Z,24.00
2022-08-19T14:28:54.336Z,22.40
2022-08-19T14:31:29.063Z,27.60
2022-08-19T14:33:59.694Z,23.30
2022-08-19T14:36:28.482Z,23.40
2022-08-19T14:38:58.913Z,26.40
2022-08-19T14:41:28.519Z,26.50
2022-08-19T14:43:58.393Z,26.70
2022-08-19T14:46:29.770Z,23.80
2022-08-19T14:48:59.858Z,24.60
2022-08-19T14:51:29.411Z,24.30
2022-08-19T14:53:58.739Z,23.60
2022-08-19T14:56:30.543Z,25.40
2022-08-19T14:59:02.329Z,26.30
2022-08-19T15:01:31.174Z,23.90
2022-08-19T15:03:59.980Z,22.30
2022-08-19T15:06:29.417Z,22.00
2022-08-19T15:09:02.061Z,21.70
2022-08-19T15:11:34.068Z,22.30
2022-08-19T15:14:03.064Z,21.10
2022-08-19T15:16:31.738Z,20.90
2022-08-19T15:19:01.447Z,20.30
2022-08-19T15:21:31.568Z,23.00
2022-08-19T15:24:02.321Z,20.30
2022-08-19T15:26:33.567Z,21.10
2022-08-19T15:29:04.224Z,19.70
2022-08-19T15:31:38.302Z,19.30
2022-08-19T15:34:08.730Z,20.20
2022-08-19T15:36:38.130Z,23.00
2022-08-19T15:39:07.736Z,20.70
2022-08-19T15:41:37.290Z,19.50
2022-08-19T15:44:13.503Z,18.30
2022-08-19T15:46:45.751Z,21.80
2022-08-19T15:49:18.530Z,22.50
2022-08-19T15:51:52.285Z,21.50
2022-08-19T15:54:22.441Z,19.90
2022-08-19T15:57:11.251Z,19.70
2022-08-19T16:00:02.448Z,18.10
2022-08-19T16:02:53.863Z,22.10
2022-08-19T16:05:45.817Z,20.20
2022-08-19T16:08:15.829Z,18.40
2022-08-19T16:10:44.518Z,19.00
2022-08-19T16:13:13.205Z,19.00
2022-08-19T16:15:43.426Z,18.00
2022-08-19T16:18:12.215Z,18.10
2022-08-19T16:20:41.312Z,20.30
2022-08-19T16:23:10.612Z,19.20
2022-08-19T16:25:39.710Z,20.00
2022-08-19T16:28:10.110Z,19.90
2022-08-19T16:30:41.173Z,20.80
2022-08-19T16:33:11.064Z,19.60
2022-08-19T16:35:39.885Z,20.50
2022-08-19T16:38:08.469Z,21.70
2022-08-19T16:40:37.257Z,19.40
2022-08-19T16:43:06.164Z,18.00
2022-08-19T16:45:34.842Z,19.00
2022-08-19T16:48:04.242Z,21.30
2022-08-19T16:50:48.758Z,21.20
2022-08-19T16:53:23.704Z,20.50
2022-08-19T16:56:00.102Z,21.80
2022-08-19T16:58:31.422Z,22.40
2022-08-19T17:01:04.250Z,21.10
2022-08-19T17:03:35.887Z,19.70
2022-08-19T17:06:17.852Z,20.40
2022-08-19T17:08:52.526Z,19.80
2022-08-19T17:11:24.886Z,21.40
2022-08-19T17:13:55.594Z,19.40
2022-08-19T17:16:28.016Z,18.50
2022-08-19T17:18:59.830Z,18.60
2022-08-19T17:21:32.774Z,20.80
2022-08-19T17:24:04.892Z,20.00
2022-08-19T17:26:33.698Z,20.30
2022-08-19T17:29:02.691Z,19.80
2022-08-19T17:31:32.915Z,19.60
2022-08-19T17:34:03.748Z,19.90
2022-08-19T17:36:34.368Z,19.90
2022-08-19T17:39:05.392Z,19.60
2022-08-19T17:41:34.917Z,18.00
2022-08-19T17:44:05.061Z,20.90
2022-08-19T17:46:34.355Z,18.00
2022-08-19T17:49:03.450Z,20.50
2022-08-19T17:51:36.033Z,20.30
2022-08-19T17:54:06.764Z,19.70
2022-08-19T17:56:35.450Z,23.60
2022-08-19T17:59:06.336Z,18.20
2022-08-19T18:01:53.916Z,17.70
2022-08-19T18:04:26.473Z,21.00
2022-08-19T18:06:55.919Z,19.00
2022-08-19T18:09:41.863Z,18.40
2022-08-19T18:12:16.620Z,18.20
2022-08-19T18:14:45.309Z,17.80
2022-08-19T18:17:19.327Z,20.40
2022-08-19T18:19:48.315Z,18.10
2022-08-19T18:22:25.403Z,17.90
2022-08-19T18:24:55.109Z,16.90
2022-08-19T18:27:27.246Z,15.60
2022-08-19T18:29:59.804Z,16.20
2022-08-19T18:32:35.205Z,23.90
2022-08-19T18:35:16.583Z,18.50
2022-08-19T18:37:46.648Z,17.50
2022-08-19T18:40:40.942Z,18.90
2022-08-19T18:43:13.639Z,18.30
2022-08-19T18:46:03.418Z,18.80
2022-08-19T18:48:57.332Z,17.10
2022-08-19T18:51:30.626Z,15.50
2022-08-19T18:54:01.553Z,18.60
2022-08-19T18:56:35.824Z,18.70
2022-08-19T18:59:04.672Z,19.00
2022-08-19T19:01:40.927Z,14.30
2022-08-19T19:04:13.638Z,16.20
2022-08-19T19:06:43.225Z,15.90
2022-08-19T19:09:18.988Z,19.60
2022-08-19T19:11:55.881Z,18.10
2022-08-19T19:14:50.572Z,20.60
2022-08-19T19:17:26.203Z,16.20
2022-08-19T19:19:54.974Z,17.10
2022-08-19T19:22:24.825Z,15.50
2022-08-19T19:24:57.191Z,16.10
2022-08-19T19:27:26.483Z,15.60
2022-08-19T19:29:56.376Z,17.00
2022-08-19T19:32:29.936Z,17.50
2022-08-19T19:34:59.918Z,16.90
2022-08-19T19:37:28.710Z,17.00
2022-08-19T19:39:57.559Z,16.60
2022-08-19T19:42:26.859Z,14.80
2022-08-19T19:44:56.878Z,18.10
2022-08-19T19:47:28.498Z,17.10
2022-08-19T19:50:15.306Z,15.40
2022-08-19T19:52:47.281Z,17.00
2022-08-19T19:55:21.082Z,19.50
2022-08-19T19:57:50.573Z,19.30
2022-08-19T20:00:21.997Z,14.90
2022-08-19T20:02:51.681Z,14.60
2022-08-19T20:05:21.920Z,15.60
2022-08-19T20:08:12.545Z,15.90
2022-08-19T20:10:43.688Z,17.50
2022-08-19T20:13:17.700Z,15.80
2022-08-19T20:15:46.967Z,16.10
2022-08-19T20:18:15.792Z,15.90
2022-08-19T20:20:46.832Z,17.10
2022-08-19T20:23:15.526Z,16.80
2022-08-19T20:25:44.615Z,16.10
2022-08-19T20:28:13.296Z,15.40
2022-08-19T20:30:46.298Z,15.80
2022-08-19T20:33:16.512Z,16.10
2022-08-19T20:35:46.535Z,17.60
2022-08-19T20:38:16.137Z,14.50
2022-08-19T20:40:44.926Z,15.00
2022-08-19T20:43:14.255Z,16.90
2022-08-19T20:45:42.922Z,14.00
2022-08-19T20:48:14.268Z,15.50
2022-08-19T20:50:43.053Z,15.60
2022-08-19T20:53:20.634Z,15.90
2022-08-19T20:55:50.462Z,15.90
2022-08-19T20:58:21.723Z,14.00
2022-08-19T21:00:54.534Z,12.40
2022-08-19T21:03:31.481Z,15.60
2022-08-19T21:06:00.070Z,13.00
2022-08-19T21:08:29.055Z,15.60
2022-08-19T21:10:59.127Z,13.90
2022-08-19T21:13:27.860Z,15.50
2022-08-19T21:15:56.755Z,15.50
2022-08-19T21:18:27.052Z,15.60
2022-08-19T21:20:56.583Z,12.60
2022-08-19T21:23:29.000Z,15.30
2022-08-19T21:26:00.606Z,14.40
2022-08-19T21:28:36.160Z,15.30
2022-08-19T21:31:10.564Z,16.80
2022-08-19T21:33:39.373Z,14.70
2022-08-19T21:36:08.887Z,14.50
2022-08-19T21:38:38.304Z,14.90
2022-08-19T21:41:07.887Z,15.40
2022-08-19T21:43:37.854Z,13.60
2022-08-19T21:46:07.515Z,14.60
2022-08-19T21:48:36.845Z,14.80
2022-08-19T21:51:05.605Z,14.70
2022-08-19T21:53:34.894Z,15.80
2022-08-19T21:56:06.667Z,15.60
2022-08-19T21:58:36.779Z,13.90
2022-08-19T22:01:08.283Z,16.50
2022-08-19T22:03:38.635Z,15.70
2022-08-19T22:06:07.658Z,15.60
2022-08-19T22:08:37.063Z,15.50
2022-08-19T22:11:05.761Z,16.70
2022-08-19T22:13:40.260Z,15.10
2022-08-19T22:16:10.416Z,15.10
2022-08-19T22:18:39.080Z,13.90
2022-08-19T22:21:11.579Z,13.90
2022-08-19T22:23:47.124Z,15.50
2022-08-19T22:26:18.084Z,15.40
2022-08-19T22:28:46.627Z,19.20
2022-08-19T22:31:16.549Z,15.50
2022-08-19T22:33:45.638Z,14.20
2022-08-19T22:36:14.738Z,15.80
2022-08-19T22:38:43.934Z,17.90
2022-08-19T22:41:12.520Z,11.90
2022-08-19T22:43:41.205Z,13.90
2022-08-19T22:46:16.901Z,15.30
2022-08-19T22:48:47.891Z,15.30
2022-08-19T22:51:43.413Z,15.00
2022-08-19T22:54:12.514Z,16.10
2022-08-19T22:56:41.198Z,16.10
2022-08-19T22:59:10.704Z,15.60
2022-08-19T23:01:42.155Z,13.70
2022-08-19T23:04:11.050Z,17.50
2022-08-19T23:06:42.177Z,14.30
2022-08-19T23:09:16.617Z,14.90
2022-08-19T23:11:47.238Z,16.90
2022-08-19T23:14:17.763Z,18.20
2022-08-19T23:16:50.999Z,17.60
2022-08-19T23:19:21.398Z,17.30
2022-08-19T23:21:50.383Z,16.70
2022-08-19T23:24:19.798Z,17.10
2022-08-19T23:27:07.423Z,16.60
2022-08-19T23:29:54.951Z,17.30
2022-08-19T23:32:25.793Z,15.70
2022-08-19T23:34:56.637Z,15.80
2022-08-19T23:37:25.722Z,17.10
2022-08-19T23:39:54.449Z,16.00
2022-08-19T23:42:23.916Z,17.60
2022-08-19T23:44:53.089Z,17.90
2022-08-19T23:47:22.211Z,16.40
2022-08-19T23:49:51.216Z,17.20
2022-08-19T23:52:20.304Z,17.00
2022-08-19T23:54:48.987Z,16.60
2022-08-19T23:57:17.778Z,16.40
2022-08-19T23:59:46.570Z,15.90
